Time;durP1;ratioP1;P1;durP2;ratioP2;P2;SDS_P1;SDS_P2;PMS_P1;PMS_P2;Temp;Humidity;BMP_temperature;BMP_pressure;BME280_temperature;BME280_humidity;BME280_pressure;Samples;Min_cycle;Max_cycle;Signal;HPM_P1;HPM_P2
2024/01/17 00:01:22;;;;;;;5.78;2.65;;;;;;;-0.50;68.41;98373.19;4988240;28;20630;-51
2024/01/17 00:03:49;;;;;;;4.57;1.98;;;;;;;-0.50;67.83;98375.72;4985731;28;20054;-48
2024/01/17 00:06:16;;;;;;;5.63;2.50;;;;;;;-0.54;68.47;98375.69;4988006;28;20042;-51
2024/01/17 00:08:43;;;;;;;3.50;1.67;;;;;;;-0.51;68.63;98369.78;4984640;28;20138;-57
2024/01/17 00:11:10;;;;;;;6.28;1.45;;;;;;;-0.52;67.95;98366.41;4996714;28;20050;-49
2024/01/17 00:13:37;;;;;;;3.05;1.83;;;;;;;-0.53;68.51;98357.03;4999642;28;20591;-48
2024/01/17 00:16:04;;;;;;;3.55;1.63;;;;;;;-0.53;68.67;98354.50;4987876;28;20862;-49
2024/01/17 00:18:31;;;;;;;4.13;1.00;;;;;;;-0.52;68.48;98348.59;4983840;28;20050;-45
2024/01/17 00:20:58;;;;;;;6.72;1.75;;;;;;;-0.55;68.49;98346.00;4988771;28;20077;-45
2024/01/17 00:23:26;;;;;;;2.83;1.70;;;;;;;-0.54;68.77;98350.25;4985290;28;20086;-48
2024/01/17 00:25:53;;;;;;;5.30;1.48;;;;;;;-0.56;68.30;98341.75;4984318;28;20054;-44
2024/01/17 00:28:20;;;;;;;3.25;2.95;;;;;;;-0.56;68.65;98336.66;4983397;28;20423;-49
2024/01/17 00:30:47;;;;;;;3.00;1.40;;;;;;;-0.54;68.28;98326.53;4983309;28;20061;-47
2024/01/17 00:33:13;;;;;;;5.75;3.42;;;;;;;-0.54;69.13;98323.97;4983407;28;20486;-43
2024/01/17 00:35:40;;;;;;;4.05;2.85;;;;;;;-0.56;68.79;98321.41;4986195;28;20415;-46
2024/01/17 00:38:07;;;;;;;5.40;3.70;;;;;;;-0.55;68.43;98318.03;4986758;28;20084;-50
2024/01/17 00:40:35;;;;;;;2.67;1.30;;;;;;;-0.56;68.56;98321.41;4973391;28;20043;-52
2024/01/17 00:43:02;;;;;;;3.80;1.60;;;;;;;-0.57;68.72;98314.59;4974839;28;20096;-45
2024/01/17 00:45:28;;;;;;;3.10;1.17;;;;;;;-0.57;68.61;98322.22;4991706;28;20103;-46
2024/01/17 00:47:57;;;;;;;3.97;3.53;;;;;;;-0.57;68.60;98324.75;4991381;28;20050;-50
2024/01/17 00:50:24;;;;;;;3.08;0.98;;;;;;;-0.57;68.99;98322.22;4984042;28;20074;-48
2024/01/17 00:52:51;;;;;;;4.00;2.80;;;;;;;-0.61;69.17;98320.47;4987710;28;20142;-42
2024/01/17 00:55:17;;;;;;;2.42;1.00;;;;;;;-0.59;68.77;98313.72;4983977;28;20084;-47
2024/01/17 00:57:44;;;;;;;2.38;1.20;;;;;;;-0.60;68.73;98314.56;4988480;28;20153;-47
2024/01/17 01:00:14;;;;;;;4.68;2.85;;;;;;;-0.59;68.86;98307.78;4984649;28;20046;-44
2024/01/17 01:02:42;;;;;;;3.85;0.82;;;;;;;-0.60;69.40;98304.41;4987531;28;20121;-47
2024/01/17 01:05:11;;;;;;;2.72;1.10;;;;;;;-0.61;68.22;98295.03;4980731;28;20050;-46
2024/01/17 01:07:38;;;;;;;2.83;2.60;;;;;;;-0.61;68.77;98286.56;4986716;28;20074;-49
2024/01/17 01:10:05;;;;;;;2.58;1.25;;;;;;;-0.63;68.48;98289.09;4983517;28;20058;-47
2024/01/17 01:12:32;;;;;;;1.85;1.10;;;;;;;-0.63;68.69;98284.00;4989743;28;20046;-47
2024/01/17 01:14:59;;;;;;;2.08;0.80;;;;;;;-0.65;68.83;98278.03;4987157;28;20077;-45
2024/01/17 01:17:26;;;;;;;6.28;2.22;;;;;;;-0.66;68.84;98264.47;4982415;28;20050;-49
2024/01/17 01:19:54;;;;;;;4.95;1.58;;;;;;;-0.67;68.74;98272.09;4981923;28;20684;-47
2024/01/17 01:22:21;;;;;;;5.85;3.60;;;;;;;-0.69;68.51;98264.44;4988085;28;20050;-49
2024/01/17 01:24:48;;;;;;;3.15;1.40;;;;;;;-0.69;68.79;98268.66;4988641;28;20054;-51
2024/01/17 01:27:15;;;;;;;3.80;2.92;;;;;;;-0.70;68.70;98266.94;4990021;28;20042;-47
2024/01/17 01:29:42;;;;;;;1.17;0.80;;;;;;;-0.72;68.76;98263.50;4983509;28;20069;-45
2024/01/17 01:32:10;;;;;;;3.08;0.90;;;;;;;-0.72;68.93;98254.22;4979413;28;20078;-42
2024/01/17 01:34:37;;;;;;;3.17;2.47;;;;;;;-0.72;69.28;98253.34;4988478;28;20104;-50
2024/01/17 01:37:04;;;;;;;2.17;1.25;;;;;;;-0.73;68.68;98252.50;4983367;28;20050;-45
2024/01/17 01:39:30;;;;;;;2.47;2.28;;;;;;;-0.73;68.19;98246.56;4988000;28;20427;-47
2024/01/17 01:42:00;;;;;;;2.72;1.10;;;;;;;-0.71;68.83;98244.91;4986119;28;20042;-50
2024/01/17 01:44:29;;;;;;;2.10;1.25;;;;;;;-0.72;68.89;98240.63;4989389;28;20047;-48
2024/01/17 01:46:57;;;;;;;3.35;1.30;;;;;;;-0.72;68.89;98243.16;4986696;28;20100;-49
2024/01/17 01:49:25;;;;;;;3.20;2.50;;;;;;;-0.72;69.20;98238.09;4983769;28;20042;-46
2024/01/17 01:51:53;;;;;;;5.05;2.08;;;;;;;-0.72;68.81;98233.88;4987598;28;20050;-46
2024/01/17 01:54:21;;;;;;;1.10;0.60;;;;;;;-0.73;68.90;98233.84;4989877;28;20068;-49
2024/01/17 01:56:49;;;;;;;5.15;0.93;;;;;;;-0.73;69.03;98232.16;4985594;28;20050;-44
2024/01/17 01:59:19;;;;;;;3.35;1.48;;;;;;;-0.70;69.14;98216.09;4989040;28;20050;-47
2024/01/17 02:01:48;;;;;;;3.75;2.90;;;;;;;-0.68;69.21;98214.41;4982110;28;20065;-43
2024/01/17 02:04:15;;;;;;;2.50;1.10;;;;;;;-0.65;69.15;98211.91;4984115;28;20054;-49
2024/01/17 02:06:44;;;;;;;2.85;1.42;;;;;;;-0.63;69.21;98207.72;4986203;28;20042;-46
2024/01/17 02:09:11;;;;;;;6.88;1.40;;;;;;;-0.63;68.62;98202.63;4986169;28;20060;-47
2024/01/17 02:11:39;;;;;;;4.45;1.55;;;;;;;-0.62;69.28;98201.78;4983687;28;20121;-43
2024/01/17 02:14:05;;;;;;;4.40;1.70;;;;;;;-0.60;69.41;98206.91;4992287;28;20050;-49
2024/01/17 02:16:33;;;;;;;1.92;0.70;;;;;;;-0.57;69.05;98196.75;4986429;28;20054;-46
2024/01/17 02:19:00;;;;;;;5.38;1.27;;;;;;;-0.58;69.20;98195.91;4983097;28;20046;-49
2024/01/17 02:21:27;;;;;;;3.60;2.88;;;;;;;-0.55;68.84;98195.94;4982206;28;20054;-49
2024/01/17 02:23:54;;;;;;;3.25;2.97;;;;;;;-0.53;68.85;98194.25;4970328;28;20073;-47
2024/01/17 02:26:20;;;;;;;1.75;1.20;;;;;;;-0.52;68.71;98190.91;4977325;28;20467;-49
2024/01/17 02:28:48;;;;;;;4.88;3.33;;;;;;;-0.49;68.92;98189.22;4978713;28;20069;-52
2024/01/17 02:31:15;;;;;;;1.45;0.57;;;;;;;-0.48;69.38;98188.41;4985426;28;20058;-46
2024/01/17 02:33:44;;;;;;;5.35;2.08;;;;;;;-0.45;69.43;98185.88;4986543;28;20049;-41
2024/01/17 02:36:11;;;;;;;1.40;0.77;;;;;;;-0.46;69.43;98174.00;4987924;28;20133;-48
2024/01/17 02:38:38;;;;;;;1.80;1.35;;;;;;;-0.42;69.21;98166.41;4988824;28;20054;-48
2024/01/17 02:41:05;;;;;;;4.18;0.90;;;;;;;-0.39;69.09;98165.59;4981633;28;20070;-45
2024/01/17 02:43:31;;;;;;;6.43;1.60;;;;;;;-0.35;68.83;98157.16;4986582;28;20609;-51
2024/01/17 02:45:58;;;;;;;4.45;2.72;;;;;;;-0.32;69.31;98152.13;4984754;28;20066;-50
2024/01/17 02:48:24;;;;;;;1.63;0.85;;;;;;;-0.30;68.71;98145.34;4985380;28;20133;-45
2024/01/17 02:50:51;;;;;;;2.75;1.60;;;;;;;-0.27;68.78;98144.53;4984944;28;20054;-45
2024/01/17 02:53:18;;;;;;;3.75;3.20;;;;;;;-0.27;68.65;98126.72;4984897;28;20414;-43
2024/01/17 02:55:46;;;;;;;3.65;3.05;;;;;;;-0.24;69.41;98126.72;4986131;28;20046;-50
2024/01/17 02:58:15;;;;;;;3.45;1.50;;;;;;;-0.21;68.93;98123.38;4981838;28;20046;-47
2024/01/17 03:00:43;;;;;;;1.05;0.63;;;;;;;-0.19;68.41;98116.59;4983132;28;20134;-47
2024/01/17 03:03:10;;;;;;;3.17;2.70;;;;;;;-0.17;68.44;98114.94;4985270;28;20073;-47
2024/01/17 03:05:38;;;;;;;5.43;1.35;;;;;;;-0.15;68.55;98113.25;4986266;28;20054;-45
2024/01/17 03:08:05;;;;;;;6.28;1.15;;;;;;;-0.14;69.18;98100.53;4983323;28;20050;-47
2024/01/17 03:10:32;;;;;;;4.20;3.65;;;;;;;-0.13;68.81;98098.88;4986979;28;20503;-43
2024/01/17 03:12:59;;;;;;;2.47;2.30;;;;;;;-0.13;69.27;98091.22;4983773;28;20058;-47
2024/01/17 03:15:28;;;;;;;1.73;1.20;;;;;;;-0.13;68.92;98086.13;4983205;28;20051;-45
2024/01/17 03:17:55;;;;;;;6.68;2.90;;;;;;;-0.11;68.55;98084.44;4982980;28;20081;-46
2024/01/17 03:20:24;;;;;;;2.97;2.45;;;;;;;-0.10;69.04;98081.03;4986177;28;20054;-44
2024/01/17 03:22:53;;;;;;;3.10;2.80;;;;;;;-0.08;69.42;98075.97;4978756;28;20134;-47
2024/01/17 03:25:21;;;;;;;3.97;2.60;;;;;;;-0.05;68.47;98078.56;4987285;28;20054;-54
2024/01/17 03:27:48;;;;;;;2.45;1.10;;;;;;;-0.04;69.01;98070.94;4984545;28;20089;-48
2024/01/17 03:30:15;;;;;;;2.67;2.40;;;;;;;-0.02;68.71;98069.25;4983979;28;20094;-52
2024/01/17 03:32:42;;;;;;;3.63;1.52;;;;;;;0.01;68.22;98058.25;4983695;28;20053;-42
2024/01/17 03:35:09;;;;;;;1.35;1.13;;;;;;;0.02;68.55;98054.00;4983106;28;20125;-55
2024/01/17 03:37:36;;;;;;;3.58;1.13;;;;;;;0.05;68.95;98043.84;4982735;28;20077;-48
2024/01/17 03:40:03;;;;;;;1.30;0.90;;;;;;;0.05;68.42;98031.97;4989343;28;20165;-53
2024/01/17 03:42:30;;;;;;;2.65;2.45;;;;;;;0.09;68.31;98030.28;4984693;28;20038;-54
2024/01/17 03:44:57;;;;;;;2.47;1.15;;;;;;;0.11;68.41;98018.44;4986495;28;20587;-48
2024/01/17 03:47:24;;;;;;;2.83;2.42;;;;;;;0.12;67.84;98015.03;4985806;28;20507;-47
2024/01/17 03:49:50;;;;;;;2.83;2.58;;;;;;;0.12;68.79;98004.84;4983893;28;20145;-51
2024/01/17 03:52:19;;;;;;;2.58;1.45;;;;;;;0.17;68.18;97998.09;4983731;28;20046;-47
2024/01/17 03:54:46;;;;;;;3.58;2.33;;;;;;;0.20;68.86;97992.19;4985741;28;20094;-50
2024/01/17 03:57:12;;;;;;;2.67;2.28;;;;;;;0.21;68.69;97993.88;4979042;28;20050;-50
2024/01/17 03:59:43;;;;;;;2.05;1.17;;;;;;;0.25;68.84;97996.47;4986914;28;20563;-49
2024/01/17 04:02:10;;;;;;;4.50;4.15;;;;;;;0.24;68.23;97979.47;4981959;28;20487;-48
2024/01/17 04:04:41;;;;;;;4.95;2.85;;;;;;;0.31;68.34;97984.59;4982883;28;20054;-45
2024/01/17 04:07:09;;;;;;;4.40;2.05;;;;;;;0.32;68.91;97965.91;4984351;28;20464;-50
2024/01/17 04:09:36;;;;;;;3.38;1.45;;;;;;;0.30;69.09;97972.72;4982503;28;20104;-48
2024/01/17 04:12:04;;;;;;;3.90;3.10;;;;;;;0.33;68.30;97952.34;4984924;28;20049;-47
2024/01/17 04:14:33;;;;;;;3.35;2.25;;;;;;;0.33;68.11;97954.88;4980464;28;20046;-45
2024/01/17 04:17:00;;;;;;;2.60;1.30;;;;;;;0.36;68.83;97957.44;4982696;28;20075;-41
2024/01/17 04:19:26;;;;;;;3.13;2.83;;;;;;;0.40;68.51;97948.97;4988798;28;20047;-51
2024/01/17 04:21:56;;;;;;;4.13;2.78;;;;;;;0.43;68.07;97946.44;4992009;28;20427;-45
2024/01/17 04:24:24;;;;;;;7.93;3.33;;;;;;;0.44;68.08;97943.06;4991666;28;20499;-48
2024/01/17 04:26:55;;;;;;;3.17;2.25;;;;;;;0.44;69.03;97937.13;4986012;28;20392;-48
2024/01/17 04:29:23;;;;;;;6.63;2.75;;;;;;;0.45;69.02;97937.13;4987253;28;20062;-49
2024/01/17 04:31:50;;;;;;;4.07;2.80;;;;;;;0.44;68.01;97935.41;4990169;28;20060;-49
2024/01/17 04:34:16;;;;;;;2.35;1.45;;;;;;;0.39;68.76;97924.38;4988009;28;20411;-45
2024/01/17 04:36:43;;;;;;;2.65;0.93;;;;;;;0.37;68.53;97924.34;4985700;28;20046;-48
2024/01/17 04:39:10;;;;;;;3.60;1.20;;;;;;;0.35;68.86;97920.09;4985846;28;20058;-48
2024/01/17 04:41:37;;;;;;;2.00;1.15;;;;;;;0.32;68.79;97912.44;4983055;28;20064;-47
2024/01/17 04:44:05;;;;;;;3.05;1.35;;;;;;;0.28;68.24;97915.81;4987229;28;20058;-47
2024/01/17 04:46:34;;;;;;;4.05;2.78;;;;;;;0.25;68.12;97912.44;4983796;28;20051;-48
2024/01/17 04:49:01;;;;;;;2.72;1.20;;;;;;;0.20;68.05;97909.00;4987783;28;20054;-47
2024/01/17 04:51:29;;;;;;;2.83;1.20;;;;;;;0.19;68.62;97917.50;4983620;28;20049;-55
2024/01/17 04:53:58;;;;;;;5.63;3.55;;;;;;;0.17;68.79;97910.69;4986990;28;20522;-47
2024/01/17 04:56:25;;;;;;;3.35;3.08;;;;;;;0.13;68.35;97914.91;4985104;28;20046;-48
2024/01/17 04:58:53;;;;;;;3.65;3.33;;;;;;;0.10;68.56;97915.75;4986078;28;20484;-49
2024/01/17 05:01:20;;;;;;;3.03;1.58;;;;;;;0.09;69.12;97923.38;4983998;28;20460;-52
2024/01/17 05:03:47;;;;;;;3.15;2.85;;;;;;;0.05;68.33;97916.56;4989345;28;20486;-45
2024/01/17 05:06:14;;;;;;;7.63;3.00;;;;;;;0.04;68.88;97925.06;4988421;28;20535;-53
2024/01/17 05:08:41;;;;;;;3.42;0.93;;;;;;;0.01;68.59;97922.47;4980139;28;20262;-48
2024/01/17 05:11:07;;;;;;;4.88;2.90;;;;;;;-0.01;68.17;97923.34;4987057;28;20050;-48
2024/01/17 05:13:34;;;;;;;3.47;3.17;;;;;;;-0.05;68.31;97906.34;4987401;28;20101;-44
2024/01/17 05:16:01;;;;;;;5.35;3.85;;;;;;;-0.06;69.05;97908.88;4986059;28;20050;-48
2024/01/17 05:18:28;;;;;;;3.30;2.97;;;;;;;-0.11;68.21;97896.13;4985000;28;20054;-48
2024/01/17 05:20:55;;;;;;;3.88;1.40;;;;;;;-0.12;69.10;97912.25;4981053;28;20504;-53
2024/01/17 05:23:22;;;;;;;2.53;1.35;;;;;;;-0.14;68.92;97919.00;4984451;28;20054;-45
2024/01/17 05:25:49;;;;;;;3.78;1.42;;;;;;;-0.13;69.00;97918.19;4984259;28;20058;-45
2024/01/17 05:28:16;;;;;;;3.05;2.58;;;;;;;-0.09;68.59;97914.81;4978372;28;20280;-44
2024/01/17 05:30:42;;;;;;;5.03;2.85;;;;;;;-0.05;68.52;97916.53;4985807;28;20084;-54
2024/01/17 05:33:09;;;;;;;7.20;4.05;;;;;;;-0.03;69.33;97904.63;4984784;28;20081;-46
2024/01/17 05:35:36;;;;;;;3.47;3.13;;;;;;;0.01;68.76;97894.47;4985313;28;20466;-47
2024/01/17 05:38:03;;;;;;;4.35;3.95;;;;;;;0.04;68.93;97899.59;4984670;28;20058;-46
2024/01/17 05:40:30;;;;;;;5.80;2.85;;;;;;;0.06;69.25;97892.78;4987983;28;20093;-46
2024/01/17 05:42:57;;;;;;;3.85;1.27;;;;;;;0.08;68.57;97880.94;4990760;28;20050;-50
2024/01/17 05:45:24;;;;;;;4.47;3.40;;;;;;;0.09;69.00;97873.31;4989884;28;20124;-43
2024/01/17 05:47:50;;;;;;;6.50;2.95;;;;;;;0.11;68.29;97870.78;4989209;28;20054;-46
2024/01/17 05:50:17;;;;;;;4.32;3.28;;;;;;;0.14;68.95;97859.75;4992477;28;20046;-48
2024/01/17 05:52:46;;;;;;;2.80;1.55;;;;;;;0.15;68.24;97861.44;4982896;28;20046;-51
2024/01/17 05:55:14;;;;;;;3.63;1.50;;;;;;;0.13;68.29;97858.88;4981880;28;20047;-46
2024/01/17 05:57:44;;;;;;;4.75;3.60;;;;;;;0.11;68.64;97850.41;4983647;28;20053;-50
2024/01/17 06:00:12;;;;;;;2.40;1.45;;;;;;;0.07;68.61;97846.16;4987676;28;20061;-47
2024/01/17 06:02:41;;;;;;;4.18;3.03;;;;;;;0.02;68.78;97852.91;4981828;28;20069;-42
2024/01/17 06:05:09;;;;;;;5.88;4.05;;;;;;;-0.03;68.90;97848.66;4985997;28;20571;-48
2024/01/17 06:07:36;;;;;;;4.25;3.22;;;;;;;-0.06;68.74;97846.13;4983862;28;20069;-45
2024/01/17 06:10:04;;;;;;;5.10;1.95;;;;;;;-0.09;69.31;97838.47;4986361;28;20121;-50
2024/01/17 06:12:31;;;;;;;6.10;3.85;;;;;;;-0.11;69.31;97844.38;4989400;28;20490;-47
2024/01/17 06:14:58;;;;;;;4.93;1.70;;;;;;;-0.12;68.44;97840.97;4981578;28;20061;-55
2024/01/17 06:17:25;;;;;;;3.35;3.05;;;;;;;-0.10;68.69;97841.81;4979761;28;20488;-49
2024/01/17 06:19:54;;;;;;;4.43;3.42;;;;;;;-0.07;69.52;97857.13;4986567;28;20058;-50
2024/01/17 06:22:20;;;;;;;8.23;2.83;;;;;;;-0.04;69.33;97838.47;4979317;28;20117;-47
2024/01/17 06:24:47;;;;;;;3.28;1.58;;;;;;;-0.02;69.33;97842.75;4985566;28;20061;-47
2024/01/17 06:27:15;;;;;;;3.75;2.05;;;;;;;0.01;69.40;97848.66;4982502;28;20043;-48
2024/01/17 06:29:42;;;;;;;10.50;2.20;;;;;;;0.02;69.09;97843.59;4978910;28;20492;-44
2024/01/17 06:32:10;;;;;;;3.72;1.50;;;;;;;0.05;69.29;97845.28;4979334;28;20042;-47
2024/01/17 06:34:37;;;;;;;5.88;4.00;;;;;;;0.05;68.93;97835.97;4980507;28;20053;-45
2024/01/17 06:37:05;;;;;;;4.72;3.95;;;;;;;0.06;68.75;97841.88;4981086;28;20046;-45
2024/01/17 06:39:32;;;;;;;3.95;3.30;;;;;;;0.06;68.79;97846.97;4983786;28;20487;-49
2024/01/17 06:41:59;;;;;;;7.43;1.50;;;;;;;0.06;69.03;97836.78;4981350;28;20046;-49
2024/01/17 06:44:27;;;;;;;5.18;1.90;;;;;;;0.05;68.90;97835.09;4991799;28;20110;-47
2024/01/17 06:46:55;;;;;;;4.43;2.10;;;;;;;0.06;68.98;97831.72;4986374;28;20141;-48
2024/01/17 06:49:22;;;;;;;4.75;2.03;;;;;;;0.08;69.12;97830.03;4984522;28;20081;-46
2024/01/17 06:51:50;;;;;;;3.92;1.95;;;;;;;0.10;69.27;97828.34;4987186;28;20050;-46
2024/01/17 06:54:17;;;;;;;5.13;4.07;;;;;;;0.13;68.68;97833.44;4988039;28;20042;-46
2024/01/17 06:56:44;;;;;;;8.20;1.92;;;;;;;0.17;69.54;97824.97;4982815;28;20042;-43
2024/01/17 06:59:11;;;;;;;4.55;2.10;;;;;;;0.19;69.33;97823.28;4989825;28;20058;-47
2024/01/17 07:01:39;;;;;;;4.20;1.67;;;;;;;0.21;69.61;97826.66;4984859;28;20042;-45
2024/01/17 07:04:07;;;;;;;5.90;2.22;;;;;;;0.25;69.30;97815.69;4982837;28;20046;-43
2024/01/17 07:06:33;;;;;;;5.28;3.42;;;;;;;0.27;68.90;97825.00;4988691;28;20053;-46
2024/01/17 07:09:00;;;;;;;4.35;3.60;;;;;;;0.29;68.90;97823.28;4986946;28;20113;-44
2024/01/17 07:11:27;;;;;;;4.38;2.28;;;;;;;0.32;69.07;97838.59;4987930;28;20077;-44
2024/01/17 07:13:54;;;;;;;5.60;1.75;;;;;;;0.33;69.93;97845.38;4988733;28;20069;-50
2024/01/17 07:16:22;;;;;;;6.90;3.70;;;;;;;0.37;69.76;97834.34;4988954;28;20053;-45
2024/01/17 07:18:49;;;;;;;6.35;3.92;;;;;;;0.38;69.53;97830.97;4989447;28;20050;-46
2024/01/17 07:21:17;;;;;;;7.38;2.90;;;;;;;0.41;69.21;97837.78;4984050;28;20452;-49
2024/01/17 07:23:45;;;;;;;7.55;4.25;;;;;;;0.43;68.78;97834.38;4990367;28;20042;-50
2024/01/17 07:26:15;;;;;;;5.07;2.47;;;;;;;0.45;69.66;97830.16;4990093;28;20054;-46
2024/01/17 07:28:41;;;;;;;4.75;2.50;;;;;;;0.46;69.45;97826.75;4975223;28;20484;-52
2024/01/17 07:31:08;;;;;;;3.47;2.53;;;;;;;0.48;69.01;97819.94;4983595;28;20579;-49
2024/01/17 07:33:36;;;;;;;4.90;2.25;;;;;;;0.50;68.84;97823.38;4985699;28;20043;-44
2024/01/17 07:36:03;;;;;;;3.50;1.75;;;;;;;0.53;68.81;97826.78;4984245;28;20085;-44
2024/01/17 07:38:30;;;;;;;5.15;2.30;;;;;;;0.51;68.75;97830.16;4982987;28;20054;-46
2024/01/17 07:40:58;;;;;;;4.15;1.83;;;;;;;0.49;68.93;97831.84;4978465;28;20705;-45
2024/01/17 07:43:25;;;;;;;5.65;4.25;;;;;;;0.51;69.12;97840.34;4993369;28;20055;-49
2024/01/17 07:45:52;;;;;;;8.88;4.18;;;;;;;0.52;68.74;97831.00;4983238;28;20651;-44
2024/01/17 07:48:20;;;;;;;4.40;1.92;;;;;;;0.53;69.65;97831.88;4987382;28;20060;-46
2024/01/17 07:50:47;;;;;;;5.85;2.10;;;;;;;0.53;69.75;97842.06;4982919;28;20038;-49
2024/01/17 07:53:14;;;;;;;5.55;4.97;;;;;;;0.57;68.71;97843.75;4984683;28;20603;-48
2024/01/17 07:55:41;;;;;;;4.68;2.42;;;;;;;0.56;69.04;97842.91;4982364;28;20046;-47
2024/01/17 07:58:11;;;;;;;5.32;4.18;;;;;;;0.59;68.94;97842.06;4981485;28;20054;-48
2024/01/17 08:00:39;;;;;;;8.73;2.55;;;;;;;0.59;69.50;97842.06;4981289;28;20110;-50
2024/01/17 08:03:07;;;;;;;6.63;4.10;;;;;;;0.61;69.22;97835.28;4982862;28;20097;-52
2024/01/17 08:05:34;;;;;;;4.80;2.20;;;;;;;0.61;68.78;97831.00;4984073;28;20050;-49
2024/01/17 08:08:01;;;;;;;6.30;5.18;;;;;;;0.62;69.52;97837.84;4985584;28;20062;-52
2024/01/17 08:10:27;;;;;;;6.45;4.88;;;;;;;0.62;69.42;97839.53;4981751;28;20504;-45
2024/01/17 08:12:58;;;;;;;7.85;5.10;;;;;;;0.63;70.35;97838.66;4983316;28;20054;-49
2024/01/17 08:15:25;;;;;;;6.20;2.17;;;;;;;0.64;70.25;97837.81;4984752;28;20050;-43
2024/01/17 08:17:52;;;;;;;9.02;4.18;;;;;;;0.64;69.78;97840.34;4981528;28;20046;-47
2024/01/17 08:20:21;;;;;;;5.63;3.80;;;;;;;0.66;70.64;97833.56;4981945;28;20559;-45
2024/01/17 08:22:49;;;;;;;8.07;4.50;;;;;;;0.69;69.93;97833.59;4983329;28;20574;-46
2024/01/17 08:25:17;;;;;;;6.20;4.10;;;;;;;0.71;69.55;97836.97;4983622;28;20061;-46
2024/01/17 08:27:43;;;;;;;7.45;3.00;;;;;;;0.73;70.55;97830.19;4983824;28;20660;-47
2024/01/17 08:30:10;;;;;;;7.22;4.20;;;;;;;0.74;69.44;97826.78;4985750;28;20073;-42
2024/01/17 08:32:38;;;;;;;5.97;4.25;;;;;;;0.76;70.72;97824.25;4985469;28;20072;-46
2024/01/17 08:35:06;;;;;;;7.70;4.68;;;;;;;0.77;70.06;97826.78;4981759;28;20468;-47
2024/01/17 08:37:34;;;;;;;6.72;4.68;;;;;;;0.77;70.67;97826.78;4976752;28;20144;-48
2024/01/17 08:40:01;;;;;;;6.28;4.05;;;;;;;0.76;69.94;97830.19;4984064;28;20046;-50
2024/01/17 08:42:28;;;;;;;8.45;5.00;;;;;;;0.77;70.41;97831.03;4986026;28;20056;-49
2024/01/17 08:44:56;;;;;;;8.02;3.60;;;;;;;0.74;70.51;97821.69;4985753;28;20137;-47
2024/01/17 08:47:24;;;;;;;8.45;5.90;;;;;;;0.77;70.13;97820.84;4982285;28;20062;-43
2024/01/17 08:49:51;;;;;;;9.73;6.55;;;;;;;0.75;69.90;97823.38;4987080;28;20050;-51
2024/01/17 08:52:18;;;;;;;10.75;4.97;;;;;;;0.77;69.81;97831.91;4988006;28;20046;-49
2024/01/17 08:54:44;;;;;;;7.45;4.65;;;;;;;0.80;70.73;97825.94;4984473;28;21500;-53
2024/01/17 08:57:11;;;;;;;12.05;5.13;;;;;;;0.83;70.96;97836.16;4987515;28;20116;-49
2024/01/17 08:59:39;;;;;;;8.35;4.97;;;;;;;0.85;69.83;97828.50;4985499;28;20046;-48
2024/01/17 09:02:07;;;;;;;9.82;3.70;;;;;;;0.87;71.45;97819.16;4983056;28;20444;-49
2024/01/17 09:04:34;;;;;;;6.57;2.70;;;;;;;0.90;70.14;97816.59;4986011;28;20058;-47
2024/01/17 09:07:01;;;;;;;10.18;5.07;;;;;;;0.91;70.61;97815.75;4983307;28;20074;-48
2024/01/17 09:09:28;;;;;;;6.57;4.18;;;;;;;0.93;70.64;97816.59;4985588;28;20097;-51
2024/01/17 09:11:54;;;;;;;9.23;4.72;;;;;;;0.95;71.33;97822.53;4995710;28;20049;-50
2024/01/17 09:14:24;;;;;;;9.82;5.72;;;;;;;0.97;70.61;97812.34;4994275;28;20058;-48
2024/01/17 09:16:52;;;;;;;10.80;5.22;;;;;;;0.98;71.29;97814.91;4991367;28;20057;-49
2024/01/17 09:19:21;;;;;;;10.18;5.57;;;;;;;1.01;71.07;97814.91;4993477;28;20046;-44
2024/01/17 09:21:51;;;;;;;7.70;4.70;;;;;;;1.02;71.46;97824.25;4991502;28;20061;-52
2024/01/17 09:24:20;;;;;;;8.73;5.43;;;;;;;1.01;70.75;97820.00;5002419;28;20053;-49
2024/01/17 09:26:49;;;;;;;7.20;4.75;;;;;;;1.03;70.55;97812.34;5000030;28;20093;-45
2024/01/17 09:29:19;;;;;;;8.35;5.38;;;;;;;1.04;71.00;97814.06;4987083;28;20558;-49
2024/01/17 09:31:47;;;;;;;9.88;5.55;;;;;;;1.08;70.83;97820.00;4989478;28;20050;-45
2024/01/17 09:34:16;;;;;;;10.57;5.05;;;;;;;1.11;70.16;97814.88;4992136;28;20050;-44
2024/01/17 09:36:44;;;;;;;7.75;4.95;;;;;;;1.11;70.21;97820.00;4989305;28;20046;-46
2024/01/17 09:39:13;;;;;;;9.95;5.60;;;;;;;1.14;70.59;97817.44;4987409;28;20057;-46
2024/01/17 09:41:41;;;;;;;9.48;5.68;;;;;;;1.17;70.81;97820.00;4984988;28;20045;-45
2024/01/17 09:44:09;;;;;;;9.43;4.93;;;;;;;1.21;71.21;97820.88;4989479;28;20050;-53
2024/01/17 09:46:41;;;;;;;7.75;4.65;;;;;;;1.21;71.29;97816.59;4989453;28;20053;-50
2024/01/17 09:49:09;;;;;;;7.90;4.57;;;;;;;1.21;70.49;97816.59;4988159;28;20047;-48
2024/01/17 09:51:38;;;;;;;9.35;4.88;;;;;;;1.22;70.33;97817.44;4988919;28;20096;-47
2024/01/17 09:54:05;;;;;;;8.35;3.67;;;;;;;1.22;70.32;97818.28;4990872;28;20046;-48
2024/01/17 09:56:33;;;;;;;6.38;2.58;;;;;;;1.25;69.95;97823.38;4989515;28;21655;-47
2024/01/17 09:59:09;;;;;;;9.82;5.18;;;;;;;1.30;70.33;97830.19;4987767;28;20081;-45
2024/01/17 10:01:38;;;;;;;6.25;5.10;;;;;;;1.33;70.91;97825.09;4989496;28;20050;-45
2024/01/17 10:04:05;;;;;;;6.25;3.05;;;;;;;1.37;70.08;97826.78;4987854;28;20459;-45
2024/01/17 10:06:33;;;;;;;8.25;2.30;;;;;;;1.39;70.30;97831.00;4988351;28;20123;-47
2024/01/17 10:09:03;;;;;;;7.85;4.55;;;;;;;1.42;70.41;97822.53;4988598;28;20510;-46
2024/01/17 10:11:29;;;;;;;9.32;4.93;;;;;;;1.42;70.72;97825.09;4984109;28;20081;-52
2024/01/17 10:13:56;;;;;;;9.90;5.30;;;;;;;1.43;70.76;97826.78;4986524;28;20048;-51
2024/01/17 10:16:25;;;;;;;10.48;2.83;;;;;;;1.44;70.78;97820.81;4989393;28;20057;-49
2024/01/17 10:18:52;;;;;;;8.93;5.10;;;;;;;1.46;69.82;97824.22;4986830;28;20050;-44
2024/01/17 10:21:19;;;;;;;9.50;2.42;;;;;;;1.48;69.56;97832.72;4987669;28;20046;-46
2024/01/17 10:23:46;;;;;;;10.15;4.85;;;;;;;1.52;70.33;97836.13;4989919;28;20053;-51
2024/01/17 10:26:15;;;;;;;7.57;4.60;;;;;;;1.56;70.76;97826.75;4990318;28;20050;-50
2024/01/17 10:28:43;;;;;;;6.13;3.55;;;;;;;1.56;69.94;97824.19;4995042;28;20420;-46
2024/01/17 10:31:10;;;;;;;4.43;3.40;;;;;;;1.60;69.35;97828.44;4993934;28;20042;-45
2024/01/17 10:33:39;;;;;;;5.47;2.10;;;;;;;1.66;69.33;97828.44;4987052;28;20529;-49
2024/01/17 10:36:07;;;;;;;3.78;1.70;;;;;;;1.72;69.57;97837.78;4984885;28;20042;-51
2024/01/17 10:38:34;;;;;;;5.05;2.10;;;;;;;1.78;69.86;97827.53;4979821;28;20046;-47
2024/01/17 10:41:05;;;;;;;4.70;3.42;;;;;;;1.80;69.40;97831.78;4985513;28;20046;-48
2024/01/17 10:43:33;;;;;;;5.07;4.32;;;;;;;1.85;69.77;97829.22;4984803;28;20082;-45
2024/01/17 10:46:09;;;;;;;4.32;3.00;;;;;;;1.93;69.09;97824.09;4989108;28;20046;-50
2024/01/17 10:48:36;;;;;;;4.32;2.22;;;;;;;2.01;68.55;97824.91;4982775;28;20668;-46
2024/01/17 10:51:06;;;;;;;3.72;1.67;;;;;;;2.10;68.56;97828.28;4992077;28;20414;-47
2024/01/17 10:53:35;;;;;;;5.45;2.97;;;;;;;2.13;68.00;97830.81;4985035;28;20038;-50
2024/01/17 10:56:19;;;;;;;3.40;2.75;;;;;;;2.13;68.46;97829.09;4982004;28;20069;-50
2024/01/17 10:58:52;;;;;;;3.95;2.97;;;;;;;2.15;67.80;97826.53;4976993;28;20055;-48
2024/01/17 11:01:25;;;;;;;3.92;3.25;;;;;;;2.18;67.74;97834.19;4974278;28;20061;-50
2024/01/17 11:03:55;;;;;;;4.10;3.45;;;;;;;2.22;68.10;97828.22;4984903;28;20045;-51
2024/01/17 11:06:23;;;;;;;4.25;3.60;;;;;;;2.29;68.66;97829.03;4987213;28;20083;-48
2024/01/17 11:08:51;;;;;;;4.18;3.75;;;;;;;2.34;68.27;97829.88;4971711;28;20058;-44
2024/01/17 11:11:19;;;;;;;3.90;3.60;;;;;;;2.38;68.05;97821.34;4986833;28;20054;-45
2024/01/17 11:13:50;;;;;;;4.78;4.25;;;;;;;2.45;67.17;97829.81;4987445;28;20046;-48
2024/01/17 11:16:18;;;;;;;9.32;3.20;;;;;;;2.45;67.96;97824.69;4983628;28;20050;-46
2024/01/17 11:18:47;;;;;;;3.33;2.88;;;;;;;2.49;67.13;97821.25;4994867;28;20061;-51
2024/01/17 11:21:17;;;;;;;5.38;3.00;;;;;;;2.52;67.55;97821.25;4991889;28;20046;-47
2024/01/17 11:23:57;;;;;;;4.50;3.45;;;;;;;2.57;67.85;97824.63;4997432;28;20124;-51
2024/01/17 11:26:37;;;;;;;2.28;2.15;;;;;;;2.61;66.78;97824.59;4990707;28;20485;-51
2024/01/17 11:32:18;;;;;;;2.08;1.20;;;;;;;2.62;67.29;97816.06;5032415;28;20409;-50
2024/01/17 11:34:48;;;;;;;2.85;0.82;;;;;;;2.62;66.31;97813.50;5015600;28;20045;-49
2024/01/17 11:37:38;;;;;;;3.58;1.60;;;;;;;2.64;67.40;97814.38;5009898;28;20042;-53
2024/01/17 11:40:09;;;;;;;3.08;1.88;;;;;;;2.65;67.39;97809.25;5013574;28;20442;-51
2024/01/17 11:42:36;;;;;;;2.75;1.48;;;;;;;2.64;67.37;97809.25;5012281;28;20053;-48
2024/01/17 11:45:03;;;;;;;3.08;1.42;;;;;;;2.61;66.24;97810.13;5020625;28;20071;-49